sensor_id;sensor_type;location;lat;lon;timestamp;P1;durP1;ratioP1;P2;durP2;ratioP2
13571;SDS011;6857;53.484;10.216;2023-11-21T00:00:19;13.23;;;8.73;;
13571;SDS011;6857;53.484;10.216;2023-11-21T00:02:45;15.13;;;8.40;;
13571;SDS011;6857;53.484;10.216;2023-11-21T00:05:12;12.50;;;8.10;;
13571;SDS011;6857;53.484;10.216;2023-11-21T00:07:39;11.60;;;7.67;;
13571;SDS011;6857;53.484;10.216;2023-11-21T00:10:06;16.80;;;9.77;;
13571;SDS011;6857;53.484;10.216;2023-11-21T00:12:33;12.10;;;7.87;;
13571;SDS011;6857;53.484;10.216;2023-11-21T00:15:00;16.47;;;8.70;;
13571;SDS011;6857;53.484;10.216;2023-11-21T00:17:26;13.83;;;8.77;;
13571;SDS011;6857;53.484;10.216;2023-11-21T00:19:52;14.57;;;8.23;;
13571;SDS011;6857;53.484;10.216;2023-11-21T00:22:18;12.80;;;8.13;;
13571;SDS011;6857;53.484;10.216;2023-11-21T00:24:45;14.43;;;8.53;;
13571;SDS011;6857;53.484;10.216;2023-11-21T00:27:11;15.07;;;8.40;;
13571;SDS011;6857;53.484;10.216;2023-11-21T00:29:37;15.60;;;9.53;;
13571;SDS011;6857;53.484;10.216;2023-11-21T00:32:03;14.37;;;8.43;;
13571;SDS011;6857;53.484;10.216;2023-11-21T00:34:30;13.40;;;8.77;;
13571;SDS011;6857;53.484;10.216;2023-11-21T00:36:56;17.23;;;10.37;;
13571;SDS011;6857;53.484;10.216;2023-11-21T00:39:22;16.73;;;10.10;;
13571;SDS011;6857;53.484;10.216;2023-11-21T00:41:48;17.60;;;10.47;;
13571;SDS011;6857;53.484;10.216;2023-11-21T00:44:14;17.60;;;9.97;;
13571;SDS011;6857;53.484;10.216;2023-11-21T00:46:41;17.93;;;10.07;;
13571;SDS011;6857;53.484;10.216;2023-11-21T00:49:06;18.77;;;10.57;;
13571;SDS011;6857;53.484;10.216;2023-11-21T00:51:32;16.90;;;10.23;;
13571;SDS011;6857;53.484;10.216;2023-11-21T00:53:58;14.13;;;9.23;;
13571;SDS011;6857;53.484;10.216;2023-11-21T00:56:24;17.57;;;10.63;;
13571;SDS011;6857;53.484;10.216;2023-11-21T00:58:50;14.23;;;9.90;;
13571;SDS011;6857;53.484;10.216;2023-11-21T01:01:17;17.40;;;9.50;;
13571;SDS011;6857;53.484;10.216;2023-11-21T01:03:47;16.57;;;10.20;;
13571;SDS011;6857;53.484;10.216;2023-11-21T01:06:12;15.47;;;9.80;;
13571;SDS011;6857;53.484;10.216;2023-11-21T01:08:38;15.33;;;10.20;;
13571;SDS011;6857;53.484;10.216;2023-11-21T01:11:04;15.77;;;9.77;;
13571;SDS011;6857;53.484;10.216;2023-11-21T01:13:32;17.23;;;11.33;;
13571;SDS011;6857;53.484;10.216;2023-11-21T01:15:58;16.67;;;11.20;;
13571;SDS011;6857;53.484;10.216;2023-11-21T01:18:24;15.27;;;10.73;;
13571;SDS011;6857;53.484;10.216;2023-11-21T01:20:50;14.37;;;10.27;;
13571;SDS011;6857;53.484;10.216;2023-11-21T01:23:19;16.63;;;11.37;;
13571;SDS011;6857;53.484;10.216;2023-11-21T01:25:45;17.20;;;11.17;;
13571;SDS011;6857;53.484;10.216;2023-11-21T01:28:11;17.07;;;10.47;;
13571;SDS011;6857;53.484;10.216;2023-11-21T01:30:37;16.77;;;9.87;;
13571;SDS011;6857;53.484;10.216;2023-11-21T01:33:02;15.50;;;9.50;;
13571;SDS011;6857;53.484;10.216;2023-11-21T01:35:28;15.77;;;9.13;;
13571;SDS011;6857;53.484;10.216;2023-11-21T01:37:54;13.00;;;8.70;;
13571;SDS011;6857;53.484;10.216;2023-11-21T01:40:20;12.43;;;8.73;;
13571;SDS011;6857;53.484;10.216;2023-11-21T01:42:46;13.20;;;9.33;;
13571;SDS011;6857;53.484;10.216;2023-11-21T01:45:12;13.30;;;9.13;;
13571;SDS011;6857;53.484;10.216;2023-11-21T01:47:42;15.13;;;8.87;;
13571;SDS011;6857;53.484;10.216;2023-11-21T01:50:10;13.47;;;7.93;;
13571;SDS011;6857;53.484;10.216;2023-11-21T01:52:41;12.73;;;7.63;;
13571;SDS011;6857;53.484;10.216;2023-11-21T01:55:09;11.10;;;8.13;;
13571;SDS011;6857;53.484;10.216;2023-11-21T01:57:37;9.63;;;7.37;;
13571;SDS011;6857;53.484;10.216;2023-11-21T02:00:04;11.50;;;7.67;;
13571;SDS011;6857;53.484;10.216;2023-11-21T02:02:47;12.13;;;7.10;;
13571;SDS011;6857;53.484;10.216;2023-11-21T02:05:14;9.53;;;7.53;;
13571;SDS011;6857;53.484;10.216;2023-11-21T02:07:43;9.07;;;6.87;;
13571;SDS011;6857;53.484;10.216;2023-11-21T02:10:12;9.17;;;6.40;;
13571;SDS011;6857;53.484;10.216;2023-11-21T02:12:44;10.27;;;6.67;;
13571;SDS011;6857;53.484;10.216;2023-11-21T02:15:10;8.20;;;6.60;;
13571;SDS011;6857;53.484;10.216;2023-11-21T02:17:42;10.03;;;6.33;;
13571;SDS011;6857;53.484;10.216;2023-11-21T02:20:12;9.23;;;5.83;;
13571;SDS011;6857;53.484;10.216;2023-11-21T02:22:42;8.13;;;5.30;;
13571;SDS011;6857;53.484;10.216;2023-11-21T02:25:13;8.03;;;5.30;;
13571;SDS011;6857;53.484;10.216;2023-11-21T02:27:39;7.20;;;5.60;;
13571;SDS011;6857;53.484;10.216;2023-11-21T02:30:05;7.13;;;5.63;;
13571;SDS011;6857;53.484;10.216;2023-11-21T02:32:32;9.70;;;6.33;;
13571;SDS011;6857;53.484;10.216;2023-11-21T02:34:59;9.03;;;6.10;;
13571;SDS011;6857;53.484;10.216;2023-11-21T02:37:27;9.00;;;5.60;;
13571;SDS011;6857;53.484;10.216;2023-11-21T02:39:53;7.67;;;5.83;;
13571;SDS011;6857;53.484;10.216;2023-11-21T02:42:18;9.23;;;5.17;;
13571;SDS011;6857;53.484;10.216;2023-11-21T02:44:44;7.57;;;6.27;;
13571;SDS011;6857;53.484;10.216;2023-11-21T02:47:12;8.03;;;5.97;;
13571;SDS011;6857;53.484;10.216;2023-11-21T02:49:38;8.43;;;6.20;;
13571;SDS011;6857;53.484;10.216;2023-11-21T02:52:04;8.77;;;5.63;;
13571;SDS011;6857;53.484;10.216;2023-11-21T02:54:29;11.07;;;6.43;;
13571;SDS011;6857;53.484;10.216;2023-11-21T02:56:55;7.30;;;5.73;;
13571;SDS011;6857;53.484;10.216;2023-11-21T02:59:21;9.63;;;6.43;;
13571;SDS011;6857;53.484;10.216;2023-11-21T03:01:46;8.27;;;5.87;;
13571;SDS011;6857;53.484;10.216;2023-11-21T03:04:12;8.53;;;6.47;;
13571;SDS011;6857;53.484;10.216;2023-11-21T03:06:42;8.97;;;6.10;;
13571;SDS011;6857;53.484;10.216;2023-11-21T03:09:09;8.60;;;6.23;;
13571;SDS011;6857;53.484;10.216;2023-11-21T03:11:34;9.33;;;6.53;;
13571;SDS011;6857;53.484;10.216;2023-11-21T03:14:00;9.43;;;6.20;;
13571;SDS011;6857;53.484;10.216;2023-11-21T03:16:26;8.03;;;5.60;;
13571;SDS011;6857;53.484;10.216;2023-11-21T03:18:51;10.70;;;6.73;;
13571;SDS011;6857;53.484;10.216;2023-11-21T03:21:17;10.10;;;6.80;;
13571;SDS011;6857;53.484;10.216;2023-11-21T03:23:42;10.03;;;6.80;;
13571;SDS011;6857;53.484;10.216;2023-11-21T03:26:11;8.70;;;6.33;;
13571;SDS011;6857;53.484;10.216;2023-11-21T03:28:37;9.60;;;7.00;;
13571;SDS011;6857;53.484;10.216;2023-11-21T03:31:03;10.47;;;7.27;;
13571;SDS011;6857;53.484;10.216;2023-11-21T03:33:29;8.53;;;6.47;;
13571;SDS011;6857;53.484;10.216;2023-11-21T03:35:54;12.30;;;6.77;;
13571;SDS011;6857;53.484;10.216;2023-11-21T03:38:20;9.77;;;7.10;;
13571;SDS011;6857;53.484;10.216;2023-11-21T03:40:45;8.97;;;6.63;;
13571;SDS011;6857;53.484;10.216;2023-11-21T03:43:12;12.10;;;7.00;;
13571;SDS011;6857;53.484;10.216;2023-11-21T03:45:38;9.57;;;7.10;;
13571;SDS011;6857;53.484;10.216;2023-11-21T03:48:05;10.10;;;7.00;;
13571;SDS011;6857;53.484;10.216;2023-11-21T03:50:31;9.57;;;7.13;;
13571;SDS011;6857;53.484;10.216;2023-11-21T03:52:57;9.63;;;6.60;;
13571;SDS011;6857;53.484;10.216;2023-11-21T03:55:25;9.77;;;7.43;;
13571;SDS011;6857;53.484;10.216;2023-11-21T03:57:51;9.53;;;6.80;;
13571;SDS011;6857;53.484;10.216;2023-11-21T04:00:17;12.07;;;7.50;;
13571;SDS011;6857;53.484;10.216;2023-11-21T04:02:45;12.20;;;6.90;;
13571;SDS011;6857;53.484;10.216;2023-11-21T04:05:10;9.10;;;6.90;;
13571;SDS011;6857;53.484;10.216;2023-11-21T04:07:36;8.63;;;6.60;;
13571;SDS011;6857;53.484;10.216;2023-11-21T04:10:03;10.20;;;7.20;;
13571;SDS011;6857;53.484;10.216;2023-11-21T04:12:32;9.60;;;6.77;;
13571;SDS011;6857;53.484;10.216;2023-11-21T04:14:57;10.13;;;6.60;;
13571;SDS011;6857;53.484;10.216;2023-11-21T04:17:23;9.63;;;6.60;;
13571;SDS011;6857;53.484;10.216;2023-11-21T04:19:49;9.40;;;7.20;;
13571;SDS011;6857;53.484;10.216;2023-11-21T04:22:14;11.10;;;6.93;;
13571;SDS011;6857;53.484;10.216;2023-11-21T04:24:40;12.27;;;6.73;;
13571;SDS011;6857;53.484;10.216;2023-11-21T04:27:05;8.30;;;6.60;;
13571;SDS011;6857;53.484;10.216;2023-11-21T04:29:31;9.20;;;7.03;;
13571;SDS011;6857;53.484;10.216;2023-11-21T04:31:56;9.23;;;7.13;;
13571;SDS011;6857;53.484;10.216;2023-11-21T04:34:22;13.37;;;7.20;;
13571;SDS011;6857;53.484;10.216;2023-11-21T04:36:49;9.47;;;6.80;;
13571;SDS011;6857;53.484;10.216;2023-11-21T04:39:15;10.37;;;6.90;;
13571;SDS011;6857;53.484;10.216;2023-11-21T04:41:40;11.33;;;7.40;;
13571;SDS011;6857;53.484;10.216;2023-11-21T04:44:06;9.77;;;6.60;;
13571;SDS011;6857;53.484;10.216;2023-11-21T04:46:31;13.50;;;7.17;;
13571;SDS011;6857;53.484;10.216;2023-11-21T04:48:57;10.17;;;6.60;;
13571;SDS011;6857;53.484;10.216;2023-11-21T04:51:26;9.63;;;6.63;;
13571;SDS011;6857;53.484;10.216;2023-11-21T04:53:52;10.87;;;7.30;;
13571;SDS011;6857;53.484;10.216;2023-11-21T04:56:17;11.50;;;7.63;;
13571;SDS011;6857;53.484;10.216;2023-11-21T04:58:43;9.93;;;6.87;;
13571;SDS011;6857;53.484;10.216;2023-11-21T05:01:09;10.03;;;7.27;;
13571;SDS011;6857;53.484;10.216;2023-11-21T05:03:34;9.70;;;6.30;;
13571;SDS011;6857;53.484;10.216;2023-11-21T05:06:00;8.53;;;6.77;;
13571;SDS011;6857;53.484;10.216;2023-11-21T05:08:26;11.57;;;7.10;;
13571;SDS011;6857;53.484;10.216;2023-11-21T05:10:52;9.00;;;6.67;;
13571;SDS011;6857;53.484;10.216;2023-11-21T05:13:18;8.60;;;6.10;;
13571;SDS011;6857;53.484;10.216;2023-11-21T05:15:45;9.53;;;7.00;;
13571;SDS011;6857;53.484;10.216;2023-11-21T05:18:10;9.07;;;6.80;;
13571;SDS011;6857;53.484;10.216;2023-11-21T05:20:38;9.13;;;6.30;;
13571;SDS011;6857;53.484;10.216;2023-11-21T05:23:05;7.17;;;5.93;;
13571;SDS011;6857;53.484;10.216;2023-11-21T05:25:31;11.30;;;6.60;;
13571;SDS011;6857;53.484;10.216;2023-11-21T05:27:57;9.00;;;6.60;;
13571;SDS011;6857;53.484;10.216;2023-11-21T05:30:26;9.43;;;6.43;;
13571;SDS011;6857;53.484;10.216;2023-11-21T05:32:51;8.47;;;6.07;;
13571;SDS011;6857;53.484;10.216;2023-11-21T05:35:17;8.27;;;6.07;;
13571;SDS011;6857;53.484;10.216;2023-11-21T05:37:43;10.63;;;6.73;;
13571;SDS011;6857;53.484;10.216;2023-11-21T05:40:10;7.97;;;5.60;;
13571;SDS011;6857;53.484;10.216;2023-11-21T05:42:38;8.97;;;6.37;;
13571;SDS011;6857;53.484;10.216;2023-11-21T05:45:05;10.17;;;6.83;;
13571;SDS011;6857;53.484;10.216;2023-11-21T05:47:39;9.17;;;6.40;;
13571;SDS011;6857;53.484;10.216;2023-11-21T05:50:06;10.03;;;6.80;;
13571;SDS011;6857;53.484;10.216;2023-11-21T05:52:37;10.33;;;6.47;;
13571;SDS011;6857;53.484;10.216;2023-11-21T05:55:04;8.67;;;6.93;;
13571;SDS011;6857;53.484;10.216;2023-11-21T05:57:32;9.07;;;6.90;;
13571;SDS011;6857;53.484;10.216;2023-11-21T06:00:01;10.27;;;6.53;;
13571;SDS011;6857;53.484;10.216;2023-11-21T06:02:39;9.63;;;7.07;;
13571;SDS011;6857;53.484;10.216;2023-11-21T06:05:06;8.90;;;6.47;;
13571;SDS011;6857;53.484;10.216;2023-11-21T06:07:32;11.20;;;7.00;;
13571;SDS011;6857;53.484;10.216;2023-11-21T06:09:58;8.27;;;6.80;;
13571;SDS011;6857;53.484;10.216;2023-11-21T06:12:24;12.07;;;7.77;;
13571;SDS011;6857;53.484;10.216;2023-11-21T06:14:50;9.47;;;7.20;;
13571;SDS011;6857;53.484;10.216;2023-11-21T06:17:16;9.27;;;6.33;;
13571;SDS011;6857;53.484;10.216;2023-11-21T06:19:42;11.57;;;6.53;;
13571;SDS011;6857;53.484;10.216;2023-11-21T06:22:10;9.50;;;5.77;;
13571;SDS011;6857;53.484;10.216;2023-11-21T06:24:36;9.80;;;6.77;;
13571;SDS011;6857;53.484;10.216;2023-11-21T06:27:03;10.33;;;6.87;;
13571;SDS011;6857;53.484;10.216;2023-11-21T06:29:29;10.53;;;7.10;;
13571;SDS011;6857;53.484;10.216;2023-11-21T06:31:56;10.07;;;7.00;;
13571;SDS011;6857;53.484;10.216;2023-11-21T06:34:23;9.13;;;6.53;;
13571;SDS011;6857;53.484;10.216;2023-11-21T06:36:49;10.03;;;7.57;;
13571;SDS011;6857;53.484;10.216;2023-11-21T06:39:14;10.80;;;7.27;;
13571;SDS011;6857;53.484;10.216;2023-11-21T06:41:41;13.80;;;7.57;;
13571;SDS011;6857;53.484;10.216;2023-11-21T06:44:08;9.00;;;7.07;;
13571;SDS011;6857;53.484;10.216;2023-11-21T06:46:33;9.73;;;6.53;;
13571;SDS011;6857;53.484;10.216;2023-11-21T06:48:59;9.60;;;7.30;;
13571;SDS011;6857;53.484;10.216;2023-11-21T06:51:24;10.90;;;8.00;;
13571;SDS011;6857;53.484;10.216;2023-11-21T06:53:50;10.33;;;7.37;;
13571;SDS011;6857;53.484;10.216;2023-11-21T06:56:16;10.63;;;8.17;;
13571;SDS011;6857;53.484;10.216;2023-11-21T06:58:43;10.23;;;7.27;;
13571;SDS011;6857;53.484;10.216;2023-11-21T07:01:10;10.33;;;8.10;;
13571;SDS011;6857;53.484;10.216;2023-11-21T07:03:36;11.53;;;7.50;;
13571;SDS011;6857;53.484;10.216;2023-11-21T07:06:02;11.80;;;7.73;;
13571;SDS011;6857;53.484;10.216;2023-11-21T07:08:28;14.57;;;7.30;;
13571;SDS011;6857;53.484;10.216;2023-11-21T07:10:54;12.03;;;8.33;;
13571;SDS011;6857;53.484;10.216;2023-11-21T07:13:19;8.90;;;7.40;;
13571;SDS011;6857;53.484;10.216;2023-11-21T07:15:44;10.40;;;7.70;;
13571;SDS011;6857;53.484;10.216;2023-11-21T07:18:10;9.73;;;7.47;;
13571;SDS011;6857;53.484;10.216;2023-11-21T07:20:36;9.57;;;7.67;;
13571;SDS011;6857;53.484;10.216;2023-11-21T07:23:02;10.93;;;7.90;;
13571;SDS011;6857;53.484;10.216;2023-11-21T07:25:28;10.57;;;6.90;;
13571;SDS011;6857;53.484;10.216;2023-11-21T07:27:54;11.83;;;7.20;;
13571;SDS011;6857;53.484;10.216;2023-11-21T07:30:20;9.73;;;7.57;;
13571;SDS011;6857;53.484;10.216;2023-11-21T07:32:47;10.50;;;7.60;;
13571;SDS011;6857;53.484;10.216;2023-11-21T07:35:13;10.17;;;7.90;;
13571;SDS011;6857;53.484;10.216;2023-11-21T07:37:38;9.87;;;7.47;;
13571;SDS011;6857;53.484;10.216;2023-11-21T07:40:04;9.73;;;7.27;;
13571;SDS011;6857;53.484;10.216;2023-11-21T07:42:33;10.87;;;8.03;;
13571;SDS011;6857;53.484;10.216;2023-11-21T07:44:59;9.57;;;7.60;;
13571;SDS011;6857;53.484;10.216;2023-11-21T07:47:24;14.67;;;8.60;;
13571;SDS011;6857;53.484;10.216;2023-11-21T07:49:52;12.53;;;8.73;;
13571;SDS011;6857;53.484;10.216;2023-11-21T07:52:18;11.33;;;8.80;;
13571;SDS011;6857;53.484;10.216;2023-11-21T07:54:46;13.10;;;8.77;;
13571;SDS011;6857;53.484;10.216;2023-11-21T07:57:11;9.80;;;7.87;;
13571;SDS011;6857;53.484;10.216;2023-11-21T07:59:38;17.37;;;8.63;;
13571;SDS011;6857;53.484;10.216;2023-11-21T08:02:06;12.27;;;7.90;;
13571;SDS011;6857;53.484;10.216;2023-11-21T08:04:32;12.13;;;9.93;;
13571;SDS011;6857;53.484;10.216;2023-11-21T08:06:58;13.53;;;9.33;;
13571;SDS011;6857;53.484;10.216;2023-11-21T08:09:23;10.93;;;8.43;;
13571;SDS011;6857;53.484;10.216;2023-11-21T08:11:49;12.80;;;7.70;;
13571;SDS011;6857;53.484;10.216;2023-11-21T08:14:14;11.27;;;7.93;;
13571;SDS011;6857;53.484;10.216;2023-11-21T08:16:40;10.03;;;7.87;;
13571;SDS011;6857;53.484;10.216;2023-11-21T08:19:06;12.50;;;8.73;;
13571;SDS011;6857;53.484;10.216;2023-11-21T08:21:33;13.97;;;7.73;;
13571;SDS011;6857;53.484;10.216;2023-11-21T08:23:59;10.37;;;7.63;;
13571;SDS011;6857;53.484;10.216;2023-11-21T08:26:25;10.87;;;7.53;;
13571;SDS011;6857;53.484;10.216;2023-11-21T08:28:51;10.93;;;7.60;;
13571;SDS011;6857;53.484;10.216;2023-11-21T08:31:27;8.93;;;7.20;;
13571;SDS011;6857;53.484;10.216;2023-11-21T08:33:53;10.23;;;7.07;;
13571;SDS011;6857;53.484;10.216;2023-11-21T08:36:20;9.27;;;6.67;;
13571;SDS011;6857;53.484;10.216;2023-11-21T08:38:48;7.80;;;6.20;;
13571;SDS011;6857;53.484;10.216;2023-11-21T08:41:14;10.83;;;6.40;;
13571;SDS011;6857;53.484;10.216;2023-11-21T08:43:40;7.50;;;5.90;;
13571;SDS011;6857;53.484;10.216;2023-11-21T08:46:07;9.47;;;6.53;;
13571;SDS011;6857;53.484;10.216;2023-11-21T08:48:36;8.03;;;6.23;;
13571;SDS011;6857;53.484;10.216;2023-11-21T08:51:02;7.53;;;6.10;;
13571;SDS011;6857;53.484;10.216;2023-11-21T08:53:29;7.00;;;5.40;;
13571;SDS011;6857;53.484;10.216;2023-11-21T08:55:55;9.87;;;5.80;;
13571;SDS011;6857;53.484;10.216;2023-11-21T08:58:21;6.20;;;5.20;;
13571;SDS011;6857;53.484;10.216;2023-11-21T09:00:47;8.33;;;5.20;;
13571;SDS011;6857;53.484;10.216;2023-11-21T09:03:12;8.50;;;5.80;;
13571;SDS011;6857;53.484;10.216;2023-11-21T09:05:38;6.97;;;5.70;;
13571;SDS011;6857;53.484;10.216;2023-11-21T09:08:04;7.53;;;6.00;;
13571;SDS011;6857;53.484;10.216;2023-11-21T09:10:30;6.23;;;4.90;;
13571;SDS011;6857;53.484;10.216;2023-11-21T09:12:57;8.27;;;5.33;;
13571;SDS011;6857;53.484;10.216;2023-11-21T09:15:24;7.60;;;4.73;;
13571;SDS011;6857;53.484;10.216;2023-11-21T09:17:50;7.20;;;5.33;;
13571;SDS011;6857;53.484;10.216;2023-11-21T09:20:15;6.57;;;4.90;;
13571;SDS011;6857;53.484;10.216;2023-11-21T09:22:41;7.57;;;5.20;;
13571;SDS011;6857;53.484;10.216;2023-11-21T09:25:07;5.80;;;5.03;;
13571;SDS011;6857;53.484;10.216;2023-11-21T09:27:33;5.93;;;4.53;;
13571;SDS011;6857;53.484;10.216;2023-11-21T09:30:00;6.27;;;4.77;;
13571;SDS011;6857;53.484;10.216;2023-11-21T09:32:26;6.63;;;5.43;;
13571;SDS011;6857;53.484;10.216;2023-11-21T09:34:51;7.80;;;4.70;;
13571;SDS011;6857;53.484;10.216;2023-11-21T09:37:20;5.23;;;4.10;;
13571;SDS011;6857;53.484;10.216;2023-11-21T09:39:46;6.70;;;4.73;;
13571;SDS011;6857;53.484;10.216;2023-11-21T09:42:13;4.80;;;3.87;;
13571;SDS011;6857;53.484;10.216;2023-11-21T09:45:03;6.50;;;4.13;;
13571;SDS011;6857;53.484;10.216;2023-11-21T09:47:39;3.57;;;3.17;;
13571;SDS011;6857;53.484;10.216;2023-11-21T09:50:05;4.47;;;3.53;;
13571;SDS011;6857;53.484;10.216;2023-11-21T09:52:38;4.80;;;3.67;;
13571;SDS011;6857;53.484;10.216;2023-11-21T09:55:15;3.80;;;3.30;;
13571;SDS011;6857;53.484;10.216;2023-11-21T09:57:44;4.50;;;3.13;;
13571;SDS011;6857;53.484;10.216;2023-11-21T10:00:10;3.67;;;3.20;;
13571;SDS011;6857;53.484;10.216;2023-11-21T10:02:37;3.70;;;3.03;;
13571;SDS011;6857;53.484;10.216;2023-11-21T10:05:06;6.40;;;3.20;;
13571;SDS011;6857;53.484;10.216;2023-11-21T10:07:32;4.37;;;3.20;;
13571;SDS011;6857;53.484;10.216;2023-11-21T10:10:00;3.00;;;2.70;;
13571;SDS011;6857;53.484;10.216;2023-11-21T10:12:27;3.70;;;2.80;;
13571;SDS011;6857;53.484;10.216;2023-11-21T10:14:54;5.73;;;3.10;;
13571;SDS011;6857;53.484;10.216;2023-11-21T10:17:23;4.83;;;3.67;;
13571;SDS011;6857;53.484;10.216;2023-11-21T10:19:51;4.67;;;3.00;;
13571;SDS011;6857;53.484;10.216;2023-11-21T10:22:18;4.47;;;2.80;;
13571;SDS011;6857;53.484;10.216;2023-11-21T10:24:45;3.80;;;3.17;;
13571;SDS011;6857;53.484;10.216;2023-11-21T10:27:11;4.80;;;3.20;;
13571;SDS011;6857;53.484;10.216;2023-11-21T10:29:38;4.83;;;3.20;;
13571;SDS011;6857;53.484;10.216;2023-11-21T10:32:05;4.13;;;3.10;;
13571;SDS011;6857;53.484;10.216;2023-11-21T10:34:30;3.07;;;2.73;;
13571;SDS011;6857;53.484;10.216;2023-11-21T10:36:56;3.67;;;2.90;;
13571;SDS011;6857;53.484;10.216;2023-11-21T10:39:23;4.20;;;3.30;;
13571;SDS011;6857;53.484;10.216;2023-11-21T10:41:52;3.77;;;2.93;;
13571;SDS011;6857;53.484;10.216;2023-11-21T10:44:18;5.73;;;2.97;;
13571;SDS011;6857;53.484;10.216;2023-11-21T10:46:49;5.20;;;3.37;;
13571;SDS011;6857;53.484;10.216;2023-11-21T10:49:21;3.33;;;2.90;;
13571;SDS011;6857;53.484;10.216;2023-11-21T10:51:49;5.07;;;2.90;;
13571;SDS011;6857;53.484;10.216;2023-11-21T10:54:20;4.57;;;3.00;;
13571;SDS011;6857;53.484;10.216;2023-11-21T10:56:48;4.40;;;3.03;;
13571;SDS011;6857;53.484;10.216;2023-11-21T10:59:16;3.87;;;3.10;;
13571;SDS011;6857;53.484;10.216;2023-11-21T11:01:42;3.90;;;3.00;;
13571;SDS011;6857;53.484;10.216;2023-11-21T11:04:11;3.93;;;2.83;;
13571;SDS011;6857;53.484;10.216;2023-11-21T11:06:44;3.30;;;2.50;;
13571;SDS011;6857;53.484;10.216;2023-11-21T11:09:15;4.00;;;2.97;;
13571;SDS011;6857;53.484;10.216;2023-11-21T11:11:41;4.00;;;2.60;;
13571;SDS011;6857;53.484;10.216;2023-11-21T11:14:10;4.00;;;2.70;;
13571;SDS011;6857;53.484;10.216;2023-11-21T11:16:38;3.63;;;2.83;;
13571;SDS011;6857;53.484;10.216;2023-11-21T11:19:08;3.60;;;2.80;;
13571;SDS011;6857;53.484;10.216;2023-11-21T11:27:01;4.10;;;2.77;;
13571;SDS011;6857;53.484;10.216;2023-11-21T11:29:57;5.00;;;2.90;;
13571;SDS011;6857;53.484;10.216;2023-11-21T11:35:17;3.53;;;3.07;;
13571;SDS011;6857;53.484;10.216;2023-11-21T11:37:50;7.07;;;2.87;;
13571;SDS011;6857;53.484;10.216;2023-11-21T11:40:15;2.90;;;2.60;;
13571;SDS011;6857;53.484;10.216;2023-11-21T11:43:00;5.03;;;3.30;;
13571;SDS011;6857;53.484;10.216;2023-11-21T11:45:33;4.00;;;2.57;;
13571;SDS011;6857;53.484;10.216;2023-11-21T11:48:00;4.93;;;3.20;;
13571;SDS011;6857;53.484;10.216;2023-11-21T11:50:27;5.10;;;3.00;;
13571;SDS011;6857;53.484;10.216;2023-11-21T11:52:53;5.83;;;3.10;;
13571;SDS011;6857;53.484;10.216;2023-11-21T11:55:23;4.03;;;3.00;;
13571;SDS011;6857;53.484;10.216;2023-11-21T12:02:45;4.10;;;3.47;;
13571;SDS011;6857;53.484;10.216;2023-11-21T12:05:18;3.70;;;2.77;;
13571;SDS011;6857;53.484;10.216;2023-11-21T12:07:51;4.50;;;3.33;;
13571;SDS011;6857;53.484;10.216;2023-11-21T12:10:22;5.67;;;3.40;;
13571;SDS011;6857;53.484;10.216;2023-11-21T12:12:59;4.57;;;3.07;;
13571;SDS011;6857;53.484;10.216;2023-11-21T12:15:27;4.33;;;3.20;;
13571;SDS011;6857;53.484;10.216;2023-11-21T12:17:56;3.80;;;2.93;;
13571;SDS011;6857;53.484;10.216;2023-11-21T12:20:23;4.10;;;3.30;;
13571;SDS011;6857;53.484;10.216;2023-11-21T12:22:50;7.43;;;3.30;;
13571;SDS011;6857;53.484;10.216;2023-11-21T12:25:20;4.80;;;2.80;;
13571;SDS011;6857;53.484;10.216;2023-11-21T12:27:51;6.63;;;4.27;;
13571;SDS011;6857;53.484;10.216;2023-11-21T12:30:18;5.60;;;3.73;;
13571;SDS011;6857;53.484;10.216;2023-11-21T12:32:51;6.10;;;3.37;;
13571;SDS011;6857;53.484;10.216;2023-11-21T12:35:18;4.87;;;3.20;;
13571;SDS011;6857;53.484;10.216;2023-11-21T12:37:46;4.13;;;3.10;;
13571;SDS011;6857;53.484;10.216;2023-11-21T12:40:12;4.50;;;3.00;;
13571;SDS011;6857;53.484;10.216;2023-11-21T12:42:44;4.60;;;3.20;;
13571;SDS011;6857;53.484;10.216;2023-11-21T12:47:49;4.90;;;3.40;;
13571;SDS011;6857;53.484;10.216;2023-11-21T12:50:19;3.60;;;2.97;;
13571;SDS011;6857;53.484;10.216;2023-11-21T12:52:48;6.80;;;3.73;;
13571;SDS011;6857;53.484;10.216;2023-11-21T12:55:19;6.23;;;4.00;;
13571;SDS011;6857;53.484;10.216;2023-11-21T12:57:49;7.07;;;3.90;;
13571;SDS011;6857;53.484;10.216;2023-11-21T13:03:11;5.07;;;3.27;;
13571;SDS011;6857;53.484;10.216;2023-11-21T13:05:41;4.73;;;3.27;;
13571;SDS011;6857;53.484;10.216;2023-11-21T13:08:09;4.77;;;3.37;;
13571;SDS011;6857;53.484;10.216;2023-11-21T13:10:38;5.90;;;3.83;;
13571;SDS011;6857;53.484;10.216;2023-11-21T13:13:10;5.53;;;3.50;;
13571;SDS011;6857;53.484;10.216;2023-11-21T13:15:46;4.50;;;3.63;;
13571;SDS011;6857;53.484;10.216;2023-11-21T13:18:16;5.67;;;3.23;;
13571;SDS011;6857;53.484;10.216;2023-11-21T13:20:42;5.27;;;3.57;;
13571;SDS011;6857;53.484;10.216;2023-11-21T13:23:09;6.87;;;4.00;;
13571;SDS011;6857;53.484;10.216;2023-11-21T13:25:40;5.27;;;3.77;;
13571;SDS011;6857;53.484;10.216;2023-11-21T13:28:07;6.53;;;4.33;;
13571;SDS011;6857;53.484;10.216;2023-11-21T13:30:33;6.57;;;3.70;;
13571;SDS011;6857;53.484;10.216;2023-11-21T13:33:01;7.30;;;3.73;;
13571;SDS011;6857;53.484;10.216;2023-11-21T13:35:32;4.63;;;3.30;;
13571;SDS011;6857;53.484;10.216;2023-11-21T13:38:11;4.23;;;3.10;;
13571;SDS011;6857;53.484;10.216;2023-11-21T13:40:37;4.37;;;3.30;;
13571;SDS011;6857;53.484;10.216;2023-11-21T13:43:11;6.23;;;2.80;;
13571;SDS011;6857;53.484;10.216;2023-11-21T13:45:37;4.20;;;2.67;;
13571;SDS011;6857;53.484;10.216;2023-11-21T13:48:07;4.17;;;3.10;;
13571;SDS011;6857;53.484;10.216;2023-11-21T13:50:35;5.93;;;3.07;;
13571;SDS011;6857;53.484;10.216;2023-11-21T13:53:02;6.93;;;3.57;;
13571;SDS011;6857;53.484;10.216;2023-11-21T13:55:35;4.07;;;3.10;;
13571;SDS011;6857;53.484;10.216;2023-11-21T13:58:02;6.13;;;2.97;;
13571;SDS011;6857;53.484;10.216;2023-11-21T14:00:28;5.83;;;3.30;;
13571;SDS011;6857;53.484;10.216;2023-11-21T14:03:09;5.37;;;3.57;;
13571;SDS011;6857;53.484;10.216;2023-11-21T14:05:42;6.57;;;3.87;;
13571;SDS011;6857;53.484;10.216;2023-11-21T14:08:09;7.03;;;3.67;;
13571;SDS011;6857;53.484;10.216;2023-11-21T14:10:37;4.93;;;3.10;;
13571;SDS011;6857;53.484;10.216;2023-11-21T14:13:08;4.13;;;3.13;;
13571;SDS011;6857;53.484;10.216;2023-11-21T14:15:35;5.87;;;3.43;;
13571;SDS011;6857;53.484;10.216;2023-11-21T14:18:06;5.20;;;3.37;;
13571;SDS011;6857;53.484;10.216;2023-11-21T14:20:35;5.03;;;3.50;;
13571;SDS011;6857;53.484;10.216;2023-11-21T14:23:03;4.47;;;3.50;;
13571;SDS011;6857;53.484;10.216;2023-11-21T14:25:32;5.80;;;3.67;;
13571;SDS011;6857;53.484;10.216;2023-11-21T14:27:59;3.20;;;2.90;;
13571;SDS011;6857;53.484;10.216;2023-11-21T14:30:25;5.47;;;3.53;;
13571;SDS011;6857;53.484;10.216;2023-11-21T14:32:53;7.57;;;3.60;;
13571;SDS011;6857;53.484;10.216;2023-11-21T14:35:21;5.13;;;2.80;;
13571;SDS011;6857;53.484;10.216;2023-11-21T14:37:46;3.77;;;2.93;;
13571;SDS011;6857;53.484;10.216;2023-11-21T14:40:12;4.27;;;2.90;;
13571;SDS011;6857;53.484;10.216;2023-11-21T14:42:40;6.07;;;2.77;;
13571;SDS011;6857;53.484;10.216;2023-11-21T14:45:12;3.63;;;2.83;;
13571;SDS011;6857;53.484;10.216;2023-11-21T14:47:40;3.97;;;2.63;;
13571;SDS011;6857;53.484;10.216;2023-11-21T14:50:10;4.37;;;3.00;;
13571;SDS011;6857;53.484;10.216;2023-11-21T14:53:08;4.47;;;2.63;;
13571;SDS011;6857;53.484;10.216;2023-11-21T14:55:35;4.77;;;2.57;;
13571;SDS011;6857;53.484;10.216;2023-11-21T14:58:16;6.00;;;3.00;;
13571;SDS011;6857;53.484;10.216;2023-11-21T15:00:51;4.43;;;3.40;;
13571;SDS011;6857;53.484;10.216;2023-11-21T15:03:27;5.83;;;2.40;;